createdAt,value
2023-04-15T00:01:02.869Z,65.98
2023-04-15T00:03:30.991Z,65.60
2023-04-15T00:05:58.600Z,65.67
2023-04-15T00:08:26.200Z,66.32
2023-04-15T00:10:53.641Z,66.60
2023-04-15T00:13:20.854Z,67.03
2023-04-15T00:15:48.237Z,67.78
2023-04-15T00:18:15.168Z,68.13
2023-04-15T00:20:42.385Z,68.24
2023-04-15T00:23:10.363Z,68.41
2023-04-15T00:25:37.575Z,68.42
2023-04-15T00:28:05.785Z,68.38
2023-04-15T00:30:32.903Z,68.46
2023-04-15T00:33:02.370Z,68.61
2023-04-15T00:35:32.602Z,68.78
2023-04-15T00:38:00.135Z,68.46
2023-04-15T00:40:27.964Z,68.48
2023-04-15T00:42:55.248Z,68.29
2023-04-15T00:45:22.486Z,68.04
2023-04-15T00:47:49.922Z,67.70
2023-04-15T00:50:16.971Z,67.80
2023-04-15T00:52:44.378Z,68.03
2023-04-15T00:55:11.617Z,68.23
2023-04-15T00:57:40.758Z,68.24
2023-04-15T01:00:09.623Z,68.36
2023-04-15T01:02:37.064Z,68.88
2023-04-15T01:05:05.259Z,69.29
2023-04-15T01:07:32.574Z,69.44
2023-04-15T01:09:59.885Z,69.49
2023-04-15T01:12:27.585Z,69.31
2023-04-15T01:14:55.591Z,69.27
2023-04-15T01:17:23.440Z,68.98
2023-04-15T01:19:51.582Z,69.25
2023-04-15T01:22:18.799Z,69.66
2023-04-15T01:25:02.428Z,69.60
2023-04-15T01:27:31.469Z,69.63
2023-04-15T01:29:58.676Z,69.57
2023-04-15T01:32:26.144Z,69.85
2023-04-15T01:35:11.882Z,70.12
2023-04-15T01:37:48.541Z,70.69
2023-04-15T01:40:17.762Z,70.88
2023-04-15T01:42:46.781Z,71.43
2023-04-15T01:45:17.615Z,71.53
2023-04-15T01:47:45.867Z,71.90
2023-04-15T01:50:14.174Z,72.41
2023-04-15T01:52:43.583Z,72.70
2023-04-15T01:55:12.595Z,73.25
2023-04-15T01:57:41.269Z,73.29
2023-04-15T02:00:09.923Z,73.64
2023-04-15T02:02:44.908Z,74.27
2023-04-15T02:05:13.479Z,74.74
2023-04-15T02:07:43.511Z,74.98
2023-04-15T02:10:13.631Z,75.50
2023-04-15T02:12:42.260Z,75.80
2023-04-15T02:15:10.936Z,76.05
2023-04-15T02:17:39.396Z,76.65
2023-04-15T02:20:10.846Z,76.78
2023-04-15T02:22:39.360Z,77.51
2023-04-15T02:25:09.337Z,77.61
2023-04-15T02:27:38.566Z,78.19
2023-04-15T02:30:07.761Z,77.99
2023-04-15T02:32:38.127Z,77.92
2023-04-15T02:35:08.877Z,78.34
2023-04-15T02:37:43.303Z,78.50
2023-04-15T02:40:13.225Z,78.63
2023-04-15T02:42:43.011Z,78.87
2023-04-15T02:45:14.344Z,78.93
2023-04-15T02:47:44.493Z,79.43
2023-04-15T02:50:13.580Z,79.52
2023-04-15T02:52:44.593Z,79.67
2023-04-15T02:55:13.379Z,79.67
2023-04-15T02:57:42.802Z,80.11
2023-04-15T03:00:13.059Z,80.03
2023-04-15T03:02:47.563Z,80.40
2023-04-15T03:05:16.277Z,80.63
2023-04-15T03:07:51.815Z,80.63
2023-04-15T03:10:21.854Z,80.28
2023-04-15T03:12:50.170Z,80.21
2023-04-15T03:15:21.288Z,79.63
2023-04-15T03:17:52.982Z,79.85
2023-04-15T03:20:21.234Z,80.02
2023-04-15T03:22:50.310Z,80.38
2023-04-15T03:25:20.591Z,80.41
2023-04-15T03:27:49.573Z,80.33
2023-04-15T03:30:18.725Z,80.37
2023-04-15T03:32:48.562Z,79.76
2023-04-15T03:35:18.327Z,79.47
2023-04-15T03:37:46.478Z,79.53
2023-04-15T03:40:15.087Z,79.50
2023-04-15T03:42:43.329Z,79.69
2023-04-15T03:45:12.348Z,79.85
2023-04-15T03:47:40.623Z,79.83
2023-04-15T03:50:09.530Z,79.97
2023-04-15T03:52:38.085Z,79.74
2023-04-15T03:55:06.728Z,79.76
2023-04-15T03:57:39.256Z,79.91
2023-04-15T04:00:10.655Z,79.93
2023-04-15T04:02:41.880Z,79.62
2023-04-15T04:05:10.813Z,79.37
2023-04-15T04:08:00.692Z,79.09
2023-04-15T04:10:29.636Z,79.19
2023-04-15T04:12:58.965Z,79.16
2023-04-15T04:15:31.675Z,79.15
2023-04-15T04:18:00.221Z,79.08
2023-04-15T04:20:28.528Z,78.82
2023-04-15T04:22:57.480Z,78.76
2023-04-15T04:25:26.115Z,78.56
2023-04-15T04:27:54.662Z,78.52
2023-04-15T04:30:23.080Z,78.43
2023-04-15T04:32:51.797Z,78.58
2023-04-15T04:35:21.510Z,78.29
2023-04-15T04:37:51.360Z,78.34
2023-04-15T04:40:19.690Z,78.53
2023-04-15T04:42:47.976Z,78.54
2023-04-15T04:45:16.435Z,78.37
2023-04-15T04:47:44.557Z,78.68
2023-04-15T04:50:12.774Z,77.95
2023-04-15T04:52:41.388Z,78.46
2023-04-15T04:55:09.811Z,78.29
2023-04-15T04:57:39.640Z,78.19
2023-04-15T05:00:09.234Z,78.08
2023-04-15T05:02:37.447Z,78.00
2023-04-15T05:05:06.781Z,77.65
2023-04-15T05:07:34.939Z,77.42
2023-04-15T05:10:03.743Z,77.18
2023-04-15T05:12:32.414Z,76.90
2023-04-15T05:15:00.646Z,75.77
2023-04-15T05:17:28.978Z,75.55
2023-04-15T05:19:57.167Z,75.21
2023-04-15T05:22:25.460Z,74.77
2023-04-15T05:24:53.629Z,74.41
2023-04-15T05:27:22.662Z,73.69
2023-04-15T05:29:51.039Z,73.28
2023-04-15T05:32:19.361Z,72.59
2023-04-15T05:34:47.748Z,71.77
2023-04-15T05:37:16.051Z,70.89
2023-04-15T05:39:44.609Z,70.18
2023-04-15T05:42:12.750Z,69.57
2023-04-15T05:44:41.171Z,69.31
2023-04-15T05:47:11.027Z,68.96
2023-04-15T05:49:39.291Z,68.91
2023-04-15T05:52:07.581Z,68.36
2023-04-15T05:54:36.619Z,67.84
2023-04-15T05:57:04.915Z,67.48
2023-04-15T05:59:33.041Z,67.34
2023-04-15T06:02:01.211Z,67.34
2023-04-15T06:04:29.555Z,67.04
2023-04-15T06:06:57.980Z,66.65
2023-04-15T06:09:26.496Z,66.19
2023-04-15T06:11:54.994Z,66.08
2023-04-15T06:14:23.342Z,65.54
2023-04-15T06:16:51.688Z,65.68
2023-04-15T06:19:20.567Z,65.73
2023-04-15T06:21:48.966Z,65.91
2023-04-15T06:24:17.282Z,66.27
2023-04-15T06:26:45.648Z,66.27
2023-04-15T06:29:14.231Z,65.64
2023-04-15T06:31:42.460Z,65.25
2023-04-15T06:34:11.364Z,65.98
2023-04-15T06:36:39.522Z,65.10
2023-04-15T06:39:07.710Z,64.45
2023-04-15T06:41:36.475Z,64.62
2023-04-15T06:44:05.159Z,64.22
2023-04-15T06:46:33.432Z,63.56
2023-04-15T06:49:04.011Z,62.44
2023-04-15T06:51:32.892Z,61.88
2023-04-15T06:54:01.068Z,61.52
2023-04-15T06:56:29.613Z,60.77
2023-04-15T06:58:57.979Z,62.36
2023-04-15T07:01:26.722Z,61.63
2023-04-15T07:03:55.079Z,60.60
2023-04-15T07:06:23.300Z,60.83
2023-04-15T07:08:54.279Z,60.26
2023-04-15T07:11:22.483Z,59.80
2023-04-15T07:13:51.011Z,59.19
2023-04-15T07:16:19.321Z,59.14
2023-04-15T07:18:47.599Z,59.08
2023-04-15T07:21:15.909Z,58.89
2023-04-15T07:23:44.120Z,57.98
2023-04-15T07:26:12.458Z,57.55
2023-04-15T07:28:40.726Z,56.42
2023-04-15T07:31:09.116Z,56.40
2023-04-15T07:33:37.186Z,56.56
2023-04-15T07:36:05.561Z,57.42
2023-04-15T07:38:33.711Z,55.89
2023-04-15T07:41:02.635Z,54.92
2023-04-15T07:43:30.820Z,54.68
2023-04-15T07:45:59.242Z,55.17
2023-04-15T07:48:27.431Z,54.97
2023-04-15T07:50:55.520Z,54.37
2023-04-15T07:53:23.672Z,54.38
2023-04-15T07:55:54.600Z,54.72
2023-04-15T07:58:23.146Z,54.04
2023-04-15T08:00:51.916Z,52.56
2023-04-15T08:03:20.157Z,52.42
2023-04-15T08:05:48.692Z,51.38
2023-04-15T08:08:16.870Z,51.97
2023-04-15T08:10:45.083Z,50.78
2023-04-15T08:13:13.368Z,49.53
2023-04-15T08:15:41.594Z,49.95
2023-04-15T08:18:09.907Z,49.10
2023-04-15T08:20:38.567Z,47.69
2023-04-15T08:23:07.041Z,46.87
2023-04-15T08:25:35.081Z,47.14
2023-04-15T08:28:07.188Z,46.92
2023-04-15T08:30:35.722Z,44.71
2023-04-15T08:33:03.935Z,44.96
2023-04-15T08:35:32.840Z,43.27
2023-04-15T08:38:01.170Z,43.18
2023-04-15T08:40:41.147Z,42.62
2023-04-15T08:43:13.273Z,41.90
2023-04-15T08:45:42.631Z,42.10
2023-04-15T08:48:16.975Z,40.43
2023-04-15T08:50:46.469Z,40.25
2023-04-15T08:53:15.718Z,41.32
2023-04-15T08:55:45.954Z,40.75
2023-04-15T08:58:14.668Z,39.84
2023-04-15T09:00:43.132Z,40.20
2023-04-15T09:03:11.663Z,39.34
2023-04-15T09:05:39.925Z,39.10
2023-04-15T09:08:08.396Z,37.62
2023-04-15T09:10:36.928Z,37.07
2023-04-15T09:13:05.273Z,37.61
2023-04-15T09:15:33.858Z,38.66
2023-04-15T09:18:04.690Z,38.15
2023-04-15T09:20:42.142Z,39.63
2023-04-15T09:23:15.157Z,39.54
2023-04-15T09:25:43.619Z,39.49
2023-04-15T09:28:12.082Z,40.15
2023-04-15T09:30:46.647Z,39.52
2023-04-15T09:33:15.413Z,41.42
2023-04-15T09:35:58.124Z,40.83
2023-04-15T09:38:26.785Z,41.33
2023-04-15T09:40:56.218Z,39.68
2023-04-15T09:43:39.437Z,39.74
2023-04-15T09:46:07.988Z,38.14
2023-04-15T09:48:36.651Z,39.00
2023-04-15T09:51:04.764Z,38.74
2023-04-15T09:53:36.638Z,38.62
2023-04-15T09:56:07.910Z,38.44
2023-04-15T09:58:38.860Z,38.95
2023-04-15T10:01:09.432Z,37.46
2023-04-15T10:03:42.375Z,37.93
2023-04-15T10:06:10.926Z,38.17
2023-04-15T10:08:39.466Z,36.53
2023-04-15T10:11:08.187Z,36.13
2023-04-15T10:13:38.371Z,35.76
2023-04-15T10:16:15.402Z,36.12
2023-04-15T10:18:45.975Z,35.60
2023-04-15T10:21:18.603Z,35.77
2023-04-15T10:23:48.683Z,35.11
2023-04-15T10:26:17.903Z,33.36
2023-04-15T10:28:47.343Z,32.78
2023-04-15T10:31:15.860Z,31.36
2023-04-15T10:33:44.974Z,31.38
2023-04-15T10:36:13.881Z,32.65
2023-04-15T10:38:45.557Z,31.25
2023-04-15T10:41:27.093Z,32.30
2023-04-15T10:44:03.774Z,30.41
2023-04-15T10:46:38.710Z,30.11
2023-04-15T10:49:17.874Z,29.25
2023-04-15T10:51:51.554Z,29.27
2023-04-15T10:54:26.289Z,29.76
2023-04-15T10:57:01.431Z,28.15
2023-04-15T10:59:30.862Z,27.72
2023-04-15T11:02:04.592Z,27.40
2023-04-15T11:04:58.348Z,27.14
2023-04-15T11:07:48.716Z,28.86
2023-04-15T11:10:26.297Z,29.41
2023-04-15T11:12:59.026Z,28.04
2023-04-15T11:15:34.160Z,28.30
2023-04-15T11:18:25.849Z,26.98
2023-04-15T11:20:57.685Z,26.56
2023-04-15T11:23:33.421Z,26.41
2023-04-15T11:26:05.704Z,26.85
2023-04-15T11:28:34.086Z,26.71
2023-04-15T11:31:28.781Z,26.42
2023-04-15T11:34:02.279Z,26.92
2023-04-15T11:36:34.649Z,27.10
2023-04-15T11:39:02.699Z,28.45
2023-04-15T11:41:30.980Z,27.30
2023-04-15T11:43:59.317Z,26.88
2023-04-15T11:46:33.754Z,26.39
2023-04-15T11:49:01.998Z,26.01
2023-04-15T11:51:33.677Z,26.41
2023-04-15T11:54:01.323Z,27.54
2023-04-15T11:56:28.890Z,27.96
2023-04-15T11:59:02.293Z,26.21
2023-04-15T12:01:39.384Z,26.09
2023-04-15T12:04:14.953Z,25.84
2023-04-15T12:06:42.178Z,26.62
2023-04-15T12:09:13.975Z,24.65
2023-04-15T12:11:48.658Z,26.06
2023-04-15T12:14:15.666Z,25.76
2023-04-15T12:16:49.358Z,26.43
2023-04-15T12:19:24.255Z,27.83
2023-04-15T12:21:52.474Z,27.18
2023-04-15T12:24:23.316Z,27.03
2023-04-15T12:26:57.344Z,28.06
2023-04-15T12:29:28.989Z,28.79
2023-04-15T12:32:05.314Z,27.86
2023-04-15T12:34:35.815Z,27.89
2023-04-15T12:37:05.925Z,26.74
2023-04-15T12:39:36.464Z,27.08
2023-04-15T12:42:05.348Z,25.75
2023-04-15T12:44:33.341Z,26.01
2023-04-15T12:47:00.649Z,25.98
2023-04-15T12:49:29.229Z,26.48
2023-04-15T12:52:00.152Z,27.50
2023-04-15T12:54:28.347Z,26.98
2023-04-15T12:56:55.816Z,26.24
2023-04-15T12:59:24.227Z,27.30
2023-04-15T13:01:53.658Z,27.34
2023-04-15T13:04:21.452Z,26.96
2023-04-15T13:06:48.522Z,26.99
2023-04-15T13:09:16.916Z,27.60
2023-04-15T13:11:44.266Z,25.58
2023-04-15T13:14:13.212Z,25.76
2023-04-15T13:16:40.954Z,25.73
2023-04-15T13:19:08.413Z,27.15
2023-04-15T13:21:36.437Z,26.39
2023-04-15T13:24:05.186Z,26.93
2023-04-15T13:26:32.966Z,27.31
2023-04-15T13:29:01.392Z,26.33
2023-04-15T13:31:28.463Z,27.68
2023-04-15T13:33:56.670Z,27.69
2023-04-15T13:36:23.700Z,27.40
2023-04-15T13:38:51.549Z,26.89
2023-04-15T13:41:20.207Z,27.08
2023-04-15T13:43:47.425Z,27.46
2023-04-15T13:46:14.839Z,26.73
2023-04-15T13:48:42.293Z,27.33
2023-04-15T13:51:09.430Z,28.03
2023-04-15T13:53:38.911Z,27.08
2023-04-15T13:56:08.519Z,28.04
2023-04-15T13:58:37.071Z,28.86
2023-04-15T14:01:05.969Z,29.14
2023-04-15T14:03:34.810Z,26.66
2023-04-15T14:06:02.030Z,25.91
2023-04-15T14:08:30.174Z,26.63
2023-04-15T14:10:57.867Z,27.55
2023-04-15T14:13:25.334Z,27.67
2023-04-15T14:15:52.459Z,28.13
2023-04-15T14:18:19.485Z,27.77
2023-04-15T14:20:46.681Z,28.37
2023-04-15T14:23:13.601Z,27.91
2023-04-15T14:25:40.692Z,27.51
2023-04-15T14:28:07.662Z,27.96
2023-04-15T14:30:34.839Z,28.37
2023-04-15T14:33:02.440Z,28.59
2023-04-15T14:35:29.660Z,29.25
2023-04-15T14:37:57.823Z,29.60
2023-04-15T14:40:24.748Z,27.58
2023-04-15T14:42:51.921Z,26.63
2023-04-15T14:45:19.149Z,26.71
2023-04-15T14:47:47.175Z,26.07
2023-04-15T14:50:14.205Z,26.75
2023-04-15T14:52:41.395Z,26.79
2023-04-15T14:55:11.157Z,28.31
2023-04-15T14:57:39.669Z,27.49
2023-04-15T15:00:08.020Z,27.56
2023-04-15T15:02:39.659Z,27.99
2023-04-15T15:05:09.949Z,28.00
2023-04-15T15:07:38.443Z,27.11
2023-04-15T15:10:06.238Z,27.81
2023-04-15T15:12:33.765Z,28.37
2023-04-15T15:15:02.908Z,28.10
2023-04-15T15:17:35.592Z,27.50
2023-04-15T15:20:03.652Z,28.30
2023-04-15T15:22:32.092Z,27.36
2023-04-15T15:24:59.860Z,27.78
2023-04-15T15:27:27.070Z,26.89
2023-04-15T15:29:54.201Z,25.38
2023-04-15T15:32:21.318Z,22.67
2023-04-15T15:34:48.334Z,22.38
2023-04-15T15:37:15.512Z,21.81
2023-04-15T15:39:42.519Z,19.87
2023-04-15T15:42:09.713Z,21.11
2023-04-15T15:44:38.592Z,22.17
2023-04-15T15:47:06.078Z,22.01
2023-04-15T15:49:33.428Z,21.92
2023-04-15T15:52:00.906Z,20.63
2023-04-15T15:54:29.192Z,20.54
2023-04-15T15:56:57.548Z,19.89
2023-04-15T15:59:25.823Z,20.42
2023-04-15T16:01:53.220Z,20.59
2023-04-15T16:04:20.461Z,20.53
2023-04-15T16:06:48.672Z,20.35
2023-04-15T16:09:16.160Z,19.84
2023-04-15T16:11:44.584Z,20.19
2023-04-15T16:14:12.100Z,20.47
2023-04-15T16:16:39.678Z,19.95
2023-04-15T16:19:07.089Z,19.94
2023-04-15T16:21:34.569Z,19.71
2023-04-15T16:24:02.254Z,20.25
2023-04-15T16:26:30.173Z,19.79
2023-04-15T16:28:57.263Z,19.72
2023-04-15T16:31:24.339Z,19.33
2023-04-15T16:33:51.376Z,19.97
2023-04-15T16:36:18.366Z,19.73
2023-04-15T16:38:48.436Z,21.65
2023-04-15T16:41:16.428Z,22.12
2023-04-15T16:43:43.528Z,23.13
2023-04-15T16:46:11.287Z,24.12
2023-04-15T16:48:38.642Z,24.95
2023-04-15T16:51:05.850Z,25.98
2023-04-15T16:53:33.028Z,26.75
2023-04-15T16:56:00.581Z,27.28
2023-04-15T16:58:28.950Z,28.41
2023-04-15T17:00:56.260Z,28.67
2023-04-15T17:03:23.497Z,29.08
2023-04-15T17:05:50.781Z,30.05
2023-04-15T17:08:18.053Z,30.70
2023-04-15T17:10:45.336Z,31.37
2023-04-15T17:13:12.737Z,31.86
2023-04-15T17:15:41.004Z,31.63
2023-04-15T17:18:25.857Z,32.73
2023-04-15T17:21:06.520Z,34.03
2023-04-15T17:23:37.818Z,34.55
2023-04-15T17:26:06.443Z,35.02
2023-04-15T17:28:35.104Z,35.86
2023-04-15T17:31:08.103Z,35.36
2023-04-15T17:34:06.687Z,36.16
2023-04-15T17:36:57.981Z,36.97
2023-04-15T17:39:46.168Z,37.52
2023-04-15T17:42:33.061Z,38.02
2023-04-15T17:45:20.183Z,38.30
2023-04-15T17:48:07.207Z,38.93
2023-04-15T17:50:54.267Z,38.89
2023-04-15T17:53:41.931Z,38.57
2023-04-15T17:56:29.544Z,39.67
2023-04-15T17:59:16.694Z,40.26
2023-04-15T18:02:03.752Z,40.99
2023-04-15T18:04:50.938Z,40.71
2023-04-15T18:07:38.011Z,41.57
2023-04-15T18:10:24.918Z,41.60
2023-04-15T18:13:11.744Z,42.21
2023-04-15T18:15:58.779Z,42.58
2023-04-15T18:18:45.925Z,42.35
2023-04-15T18:21:13.861Z,42.89
2023-04-15T18:23:41.097Z,43.21
2023-04-15T18:26:08.140Z,43.41
2023-04-15T18:28:37.807Z,43.85
2023-04-15T18:31:05.043Z,44.24
2023-04-15T18:33:32.031Z,44.36
2023-04-15T18:35:59.172Z,44.36
2023-04-15T18:38:26.373Z,44.24
2023-04-15T18:40:53.474Z,44.42
2023-04-15T18:43:20.868Z,44.49
2023-04-15T18:45:47.881Z,44.71
2023-04-15T18:48:16.082Z,45.93
2023-04-15T18:50:43.607Z,44.97
2023-04-15T18:53:10.727Z,45.04
2023-04-15T18:55:39.402Z,45.10
2023-04-15T18:58:08.830Z,45.90
2023-04-15T19:00:40.604Z,45.90
2023-04-15T19:03:08.128Z,46.07
2023-04-15T19:05:35.801Z,46.78
2023-04-15T19:08:02.793Z,47.14
2023-04-15T19:10:30.031Z,47.15
2023-04-15T19:12:57.005Z,47.10
2023-04-15T19:15:24.023Z,47.03
2023-04-15T19:17:51.168Z,46.26
2023-04-15T19:20:18.385Z,46.10
2023-04-15T19:22:46.297Z,46.59
2023-04-15T19:25:13.501Z,46.61
2023-04-15T19:27:40.423Z,44.92
2023-04-15T19:30:08.348Z,45.81
2023-04-15T19:32:36.499Z,44.89
2023-04-15T19:35:03.761Z,44.90
2023-04-15T19:37:31.400Z,44.61
2023-04-15T19:39:58.534Z,43.91
2023-04-15T19:42:25.635Z,44.06
2023-04-15T19:44:52.645Z,44.95
2023-04-15T19:47:19.845Z,44.98
2023-04-15T19:49:46.958Z,45.57
2023-04-15T19:52:14.112Z,46.26
2023-04-15T19:54:41.399Z,47.09
2023-04-15T19:57:08.484Z,46.77
2023-04-15T19:59:35.388Z,46.38
2023-04-15T20:02:02.591Z,46.61
2023-04-15T20:04:29.956Z,46.82
2023-04-15T20:06:57.128Z,47.09
2023-04-15T20:09:24.226Z,47.48
2023-04-15T20:12:46.227Z,47.92
2023-04-15T20:14:38.312Z,47.48
2023-04-15T20:17:05.463Z,47.70
2023-04-15T20:19:32.583Z,47.59
2023-04-15T20:21:59.677Z,45.87
2023-04-15T20:24:26.724Z,45.33
2023-04-15T20:26:53.936Z,46.18
2023-04-15T20:29:21.088Z,45.45
2023-04-15T20:31:48.345Z,45.42
2023-04-15T20:34:15.746Z,45.35
2023-04-15T20:36:43.171Z,46.53
2023-04-15T20:39:10.315Z,47.08
2023-04-15T20:41:37.472Z,47.59
2023-04-15T20:44:04.394Z,47.97
2023-04-15T20:46:31.586Z,48.14
2023-04-15T20:48:58.720Z,48.54
2023-04-15T20:51:27.416Z,48.43
2023-04-15T20:53:55.622Z,48.78
2023-04-15T20:56:25.339Z,48.89
2023-04-15T20:58:53.503Z,49.21
2023-04-15T21:01:20.892Z,48.93
2023-04-15T21:03:47.958Z,49.04
2023-04-15T21:06:15.080Z,49.19
2023-04-15T21:08:42.076Z,49.49
2023-04-15T21:11:09.255Z,49.39
2023-04-15T21:13:36.240Z,49.61
2023-04-15T21:16:03.497Z,50.05
2023-04-15T21:18:30.718Z,50.05
2023-04-15T21:21:01.669Z,50.33
2023-04-15T21:23:35.889Z,50.32
2023-04-15T21:26:03.179Z,50.42
2023-04-15T21:28:30.339Z,50.39
2023-04-15T21:30:57.913Z,50.57
2023-04-15T21:33:25.513Z,50.29
2023-04-15T21:35:54.869Z,49.76
2023-04-15T21:38:23.397Z,49.86
2023-04-15T21:40:51.070Z,49.86
2023-04-15T21:43:18.916Z,49.92
2023-04-15T21:45:51.291Z,49.70
2023-04-15T21:48:33.101Z,49.42
2023-04-15T21:51:01.687Z,49.44
2023-04-15T21:53:28.886Z,48.63
2023-04-15T21:55:56.285Z,48.12
2023-04-15T21:58:24.099Z,49.00
2023-04-15T22:00:52.559Z,47.96
2023-04-15T22:03:20.104Z,48.45
2023-04-15T22:05:47.190Z,48.59
2023-04-15T22:08:14.364Z,49.19
2023-04-15T22:10:41.389Z,49.22
2023-04-15T22:13:11.488Z,49.36
2023-04-15T22:15:39.207Z,50.01
2023-04-15T22:18:06.252Z,50.19
2023-04-15T22:20:33.334Z,50.56
2023-04-15T22:23:00.388Z,49.75
2023-04-15T22:25:27.410Z,50.00
2023-04-15T22:27:54.470Z,49.80
2023-04-15T22:30:21.575Z,50.81
2023-04-15T22:32:48.547Z,51.38
2023-04-15T22:35:15.805Z,52.58
2023-04-15T22:37:42.761Z,53.60
2023-04-15T22:40:28.983Z,54.62
2023-04-15T22:42:56.176Z,55.43
2023-04-15T22:45:23.635Z,56.49
2023-04-15T22:47:51.025Z,56.62
2023-04-15T22:50:18.326Z,57.07
2023-04-15T22:52:48.177Z,57.62
2023-04-15T22:55:15.563Z,58.09
2023-04-15T22:57:42.706Z,58.56
2023-04-15T23:00:11.483Z,58.89
2023-04-15T23:02:39.751Z,59.32
2023-04-15T23:05:12.617Z,59.45
2023-04-15T23:07:41.285Z,59.53
2023-04-15T23:10:08.995Z,60.01
2023-04-15T23:12:36.177Z,60.17
2023-04-15T23:15:03.742Z,60.65
2023-04-15T23:17:35.026Z,60.76
2023-04-15T23:20:02.798Z,61.06
2023-04-15T23:22:30.790Z,61.27
2023-04-15T23:24:58.052Z,61.73
2023-04-15T23:27:25.180Z,61.57
2023-04-15T23:29:52.441Z,62.01
2023-04-15T23:32:19.627Z,61.94
2023-04-15T23:34:47.039Z,62.41
2023-04-15T23:37:17.864Z,62.54
2023-04-15T23:39:45.579Z,62.63
2023-04-15T23:42:12.683Z,62.55
2023-04-15T23:44:39.685Z,62.78
2023-04-15T23:47:07.009Z,63.09
2023-04-15T23:49:34.472Z,63.22
2023-04-15T23:52:01.824Z,63.01
2023-04-15T23:54:29.011Z,63.32
2023-04-15T23:56:56.627Z,63.25
2023-04-15T23:59:23.693Z,63.37
